Tiempo atmosférico en la estación meteorológica de Osuna, Sevilla (255 m.)



Fecha
DESCASC
Temp. máxima en grados centígrados (hora)
DESCASC
Temp. mínima en grados centígrados (hora)
DESCASC
Temp. media en grados centígrados
DESCASC
Racha de viento máxima en m/sg (hora)
DESCASC
Velocidad máxima media en intervalos de 10 minutos(hora)
DESCASC
Precipitaciones diarias en mm
DESCASC
Precipitaciones de 00:00 a 06:00 en mm
DESCASC
Precipitaciones de 06:00 a 12:00 en mm
DESCASC
Precipitaciones de 12:00 a 18:00 en mm
DESCASC
Precipitaciones de 18:00 a 24:00 en mm
DESCASC
22-04-2019 22.7 (17:20) 11.1 (07:00) 16.9 15.28 (18:50) 10.56 (18:50) 0 0 0 0 0
21-04-2019 16.5 (16:10) 11.4 (08:10) 13.9 6.94 (16:30) 3.89 (00:10) 0 0 0 0 0
20-04-2019 19 (17:30) 9.6 (07:40) 14.3 9.72 (19:00) 4.72 (19:00) 0.6 0 0 0 0.6
19-04-2019 19.9 (18:10) 10.1 (08:00) 15 7.22 (18:10) 5.28 (19:10) 15 0 0 0 15
18-04-2019 17.8 (16:10) 10.9 (00:00) 14.3 11.39 (01:10) 5.83 (01:20) 13.2 0 1.6 1.4 10.2
17-04-2019 22 (16:00) 14.9 (00:00) 18.4 22.22 (11:50) 12.78 (09:40) 0 0 0 0 0
16-04-2019 25.9 (17:50) 12.4 (00:00) 19.1 13.61 (23:59) 7.78 (23:59) 0 0 0 0 0
15-04-2019 26 (16:10) 15.2 (00:00) 20.6 15.28 (18:50) 9.17 (18:40) 0 0 0 0 0
14-04-2019 26.4 (18:40) 13.7 (00:00) 20 5.56 (15:20) 2.78 (18:50) 0 0 0 0 0
13-04-2019 23.8 (17:40) 11.9 (00:00) 17.8 7.5 (21:20) 4.44 (19:20) 0 0 0 0 0
12-04-2019 21.6 (18:30) 10.4 (00:00) 16 6.39 (14:30) 3.06 (19:00) 0 0 0 0 0
11-04-2019 19.4 (18:30) 9.5 (00:00) 14.4 5.28 (16:40) 3.33 (22:40) 0 0 0 0 0
10-04-2019 18.4 (19:00) 8.1 (00:00) 13.3 10.83 (18:50) 6.11 (19:40) 0 0 0 0 0
09-04-2019 17.3 (15:30) 8.7 (00:00) 13 13.33 (18:50) 9.44 (17:10) 0 0 0 0 0
08-04-2019 16.2 (16:30) 12.2 (00:00) 14.2 15 (17:00) 9.17 (17:00) 3.6 0.2 0.2 3.2 0
07-04-2019 15 (14:50) 9.3 (00:00) 12.2 16.67 (20:50) 8.33 (14:50) 5.6 0 0.4 0 5.2
06-04-2019 15.2 (15:20) 7.5 (00:00) 11.3 15.83 (17:50) 10.28 (15:10) 9 0 0 6.6 2.4
05-04-2019 13.8 (18:10) 8.7 (00:00) 11.3 16.39 (16:50) 11.11 (17:20) 11.8 0 11.4 0.4 0
04-04-2019 18.4 (18:10) 8 (00:00) 13.2 17.22 (18:50) 9.44 (19:00) 0 0 0 0 0
03-04-2019 21.6 (17:20) 12.6 (08:00) 17.1 12.5 (17:30) 8.33 (18:00) 0 0 0 0 0
02-04-2019 20.8 (18:50) 10.4 (00:00) 15.6 5.56 (12:30) 3.33 (05:00) 0 0 0 0 0
01-04-2019 17.8 (16:40) 12 (00:00) 14.9 8.61 (17:00) 5 (17:00) 1.4 0 1 0.4 0
31-03-2019 20.7 (17:40) 12.3 (00:00) 16.5 8.33 (00:20) 5 (19:50) 12 0.4 2 0 9.6
30-03-2019 18.7 (12:50) 12.4 (00:00) 15.6 19.17 (00:20) 10 (00:50) 0 0 0 0 0
29-03-2019 18.7 (15:50) 11.9 (00:00) 15.3 15.83 (10:30) 8.61 (10:40) 0 0 0 0 0
28-03-2019 18.6 (15:10) 10.4 (00:00) 14.5 16.39 (22:30) 8.06 (17:00) 0 0 0 0 0
27-03-2019 19.4 (15:10) 11.5 (00:00) 15.4 14.17 (03:10) 6.94 (03:10) 0 0 0 0 0
26-03-2019 22.7 (14:20) 14.4 (00:00) 18.6 15 (11:50) 7.22 (13:10) 0 0 0 0 0
25-03-2019 22.3 (15:40) 12.3 (00:00) 17.3 15 (22:50) 6.11 (18:10) 0 0 0 0 0

Gráficas

Temp. máximas Temp. mínimas Temp. medias Precipitaciones Rachas de viento máximas Velocidades máximas media en intervalos de 10 minutos

Datos horarios

Fecha y hora oficial Temperatura (ºC) Velocidad del viento (km/h) Dirección del viento Racha (km/h) Dirección de racha Precipitación (mm) Presión (hPa) Tendencia (hPa) Humedad (%)
2019-04-23 23:00:00 10.9 15 Sudoeste 33 Sudoeste 0 -- -- 74
2019-04-23 22:00:00 11 6 Sudoeste 26 Oeste 0 -- -- 73
2019-04-23 21:00:00 11.8 21 Oeste 39 Oeste 0 -- -- 67
2019-04-23 20:00:00 13.6 31 Oeste 53 Oeste 0 -- -- 56
2019-04-23 19:00:00 14.3 30 Oeste 49 Oeste 0 -- -- 54
2019-04-23 18:00:00 15.2 34 Oeste 46 Oeste 0 -- -- 56
2019-04-23 17:00:00 13.9 23 Oeste 40 Oeste 0.6 -- -- 78
2019-04-23 16:00:00 9.8 27 Oeste 49 Oeste 1.6 -- -- 82
2019-04-23 15:00:00 15 25 Oeste 44 Oeste 0 -- -- 56
2019-04-23 14:00:00 14.7 28 Oeste 39 Oeste 0 -- -- 56
2019-04-23 13:00:00 14.2 19 Oeste 34 Oeste 0 -- -- 58
2019-04-23 12:00:00 12.7 22 Oeste 44 Sudoeste 0 -- -- 66
2019-04-23 11:00:00 10.9 19 Oeste 31 Oeste 0.2 -- -- 85
2019-04-23 10:00:00 10.2 18 Oeste 31 Oeste 0 -- -- 90
2019-04-23 09:00:00 10.4 19 Oeste 32 Sudoeste 1.2 -- -- 89
2019-04-23 08:00:00 11.5 8 Sur 48 Oeste 4.2 -- -- 90
2019-04-23 07:00:00 13.3 18 Oeste 31 Oeste 1.4 -- -- 82
2019-04-23 06:00:00 13.8 16 Sudoeste 28 Sur 0 -- -- 74
2019-04-23 05:00:00 13.8 12 Sudoeste 34 Sudoeste 0 -- -- 76
2019-04-23 04:00:00 14.3 23 Sudoeste 36 Sudoeste 0 -- -- 78
2019-04-23 03:00:00 14.4 19 Oeste 35 Oeste 0 -- -- 78
2019-04-23 02:00:00 14.5 15 Oeste 30 Oeste 0 -- -- 77
2019-04-23 01:00:00 14.3 21 Sudoeste 39 Oeste 0 -- -- 76
2019-04-23 00:00:00 14.6 20 Sudoeste 37 Sudoeste 0 -- -- 75
2019-04-22 23:00:00 15.1 23 Sudoeste 42 Sudoeste 0 -- -- 73
2019-04-22 22:00:00 16 15 Sudoeste 32 Sudoeste 0 -- -- 68
2019-04-22 21:00:00 17.4 20 Sudoeste 47 Oeste 0 -- -- 62
2019-04-22 20:00:00 19.8 31 Oeste 52 Oeste 0 -- -- 40
2019-04-22 19:00:00 21.6 32 Oeste 55 Oeste 0 -- -- 42
2019-04-22 18:00:00 22 28 Oeste 44 Oeste 0 -- -- 38
2019-04-22 17:00:00 22 25 Oeste 42 Sudoeste 0 -- -- 41
2019-04-22 16:00:00 21.4 19 Oeste 47 Oeste 0 -- -- 47
2019-04-22 15:00:00 20.8 23 Oeste 37 Oeste 0 -- -- 48
2019-04-22 14:00:00 19 16 Oeste 26 Oeste 0 -- -- 52
2019-04-22 13:00:00 18.1 9 Oeste 21 Oeste 0 -- -- 55
2019-04-22 12:00:00 16.6 8 Noroeste 16 Noroeste 0 -- -- 57
2019-04-22 11:00:00 16 6 Oeste 17 Oeste 0 -- -- 55
2019-04-22 10:00:00 14.5 6 Sudoeste 11 Sudoeste 0 -- -- 64
2019-04-22 09:00:00 12.2 4 Sur 11 Sur 0 -- -- 71
2019-04-22 08:00:00 11.5 3 Sur 7 Sudeste 0 -- -- 74
2019-04-22 07:00:00 11.1 3 Sur 6 Sur 0 -- -- 76
2019-04-22 06:00:00 11.5 3 Sur 6 Sudoeste 0 -- -- 76
2019-04-22 05:00:00 12 4 Sudoeste 7 Sudoeste 0 -- -- 76
2019-04-22 04:00:00 12.3 0 Calma 3 Sur 0 -- -- 74
2019-04-22 03:00:00 12.2 0 Calma 5 Sudoeste 0 -- -- 74
2019-04-22 02:00:00 12.5 3 Oeste 5 Sudoeste 0 -- -- 74
2019-04-22 01:00:00 13 0 Calma 4 Nordeste 0 -- -- 70
2019-04-22 00:00:00 13.2 0 Calma 7 Nordeste 0 -- -- 70
2019-04-21 23:00:00 13.3 2 Este 5 Este 0 -- -- 69
2019-04-21 22:00:00 14 2 Nordeste 10 Este 0 -- -- 68
2019-04-21 21:00:00 14.9 5 Este 13 Este 0 -- -- 66
2019-04-21 20:00:00 15.5 8 Nordeste 21 Nordeste 0 -- -- 62
2019-04-21 19:00:00 16.2 10 Nordeste 23 Nordeste 0 -- -- 59
2019-04-21 18:00:00 16.1 8 Nordeste 21 Nordeste 0 -- -- 59
2019-04-21 17:00:00 16.2 9 Nordeste 25 Norte 0 -- -- 62
2019-04-21 16:00:00 16.4 9 Nordeste 21 Este 0 -- -- 60
2019-04-21 15:00:00 16 10 Nordeste 21 Nordeste 0 -- -- 61
2019-04-21 14:00:00 15.1 10 Nordeste 21 Nordeste 0 -- -- 64
2019-04-21 13:00:00 13.8 10 Nordeste 21 Nordeste 0 -- -- 68
2019-04-21 12:00:00 13.6 8 Nordeste 18 Norte 0 -- -- 71
2019-04-21 11:00:00 12.7 10 Nordeste 20 Nordeste 0 -- -- 76
2019-04-21 10:00:00 12.2 9 Nordeste 19 Nordeste 0 -- -- 77
2019-04-21 09:00:00 11.8 6 Nordeste 15 Este 0 -- -- 77
2019-04-21 08:00:00 11.5 3 Norte 10 Este 0 -- -- 81
2019-04-21 07:00:00 11.6 2 Nordeste 10 Nordeste 0 -- -- 83
2019-04-21 06:00:00 12 3 Nordeste 9 Nordeste 0 -- -- 82
2019-04-21 05:00:00 12.8 4 Este 15 Este 0 -- -- 85
2019-04-21 04:00:00 12.6 4 Nordeste 10 Este 0 -- -- 88
2019-04-21 03:00:00 13 6 Este 15 Sudeste 0 -- -- 85
2019-04-21 02:00:00 13 9 Este 19 Sudeste 0 -- -- 81
2019-04-21 01:00:00 13.3 7 Sudeste 22 Este 0 -- -- 81
2019-04-21 00:00:00 13.6 9 Sudeste 17 Sudeste 0 -- -- 86
2019-04-20 23:00:00 14 8 Este 21 Sudeste 0.6 -- -- 84
2019-04-20 22:00:00 15.8 10 Este 23 Nordeste 0 -- -- 70
2019-04-20 21:00:00 16.3 3 Nordeste 11 Sudeste 0 -- -- 69
2019-04-20 20:00:00 16.5 6 Sudeste 29 Este 0 -- -- 68
2019-04-20 19:00:00 18.2 17 Este 35 Este 0 -- -- 57
2019-04-20 18:00:00 18.7 11 Nordeste 28 Este 0 -- -- 57
2019-04-20 17:00:00 18.6 15 Nordeste 29 Nordeste 0 -- -- 61
2019-04-20 16:00:00 18.5 8 Nordeste 23 Este 0 -- -- 60
2019-04-20 15:00:00 17.9 9 Nordeste 20 Este 0 -- -- 60
2019-04-20 14:00:00 16.4 9 Nordeste 21 Norte 0 -- -- 68
2019-04-20 13:00:00 14.9 8 Nordeste 22 Norte 0 -- -- 75
2019-04-20 12:00:00 12.6 5 Nordeste 13 Nordeste 0 -- -- 85
2019-04-20 11:00:00 11.4 3 Nordeste 9 Norte 0 -- -- 85
2019-04-20 10:00:00 10.9 3 Norte 9 Nordeste 0 -- -- 84
2019-04-20 09:00:00 10.3 2 Este 8 Este 0 -- -- 84
2019-04-20 08:00:00 9.6 3 Nordeste 7 Este 0 -- -- 87
2019-04-20 07:00:00 9.9 3 Nordeste 12 Nordeste 0 -- -- 86
2019-04-20 06:00:00 9.8 3 Nordeste 11 Nordeste 0 -- -- 91
2019-04-20 05:00:00 10.3 2 Sudoeste 6 Sur 0 -- -- 89
2019-04-20 04:00:00 10.7 3 Nordeste 9 Norte 0 -- -- 88
2019-04-20 03:00:00 11.3 3 Este 11 Este 0 -- -- 86
2019-04-20 02:00:00 11.8 5 Este 12 Este 0 -- -- 81
2019-04-20 01:00:00 11.9 4 Este 12 Sudeste 0 -- -- 84
2019-04-20 00:00:00 12.2 3 Este 9 Nordeste 0 -- -- 85
2019-04-19 23:00:00 12.5 4 Sur 10 Sudeste 0.2 -- -- 83
2019-04-19 22:00:00 12.4 4 Sur 9 Sur 3.2 -- -- 85
2019-04-19 21:00:00 12 8 Sur 17 Sudeste 9.2 -- -- 87
2019-04-19 20:00:00 13 13 Sudeste 26 Oeste 2.4 -- -- 78
2019-04-19 19:00:00 18.4 15 Oeste 26 Noroeste 0 -- -- 56
2019-04-19 18:00:00 19.4 10 Norte 18 Noroeste 0 -- -- 47
2019-04-19 17:00:00 19.6 5 Norte 15 Oeste 0 -- -- 43
2019-04-19 16:00:00 19.2 6 Noroeste 19 Oeste 0 -- -- 50
2019-04-19 15:00:00 18.1 9 Noroeste 18 Noroeste 0 -- -- 53
2019-04-19 14:00:00 17.3 8 Noroeste 15 Noroeste 0 -- -- 57
2019-04-19 13:00:00 16.1 7 Norte 13 Norte 0 -- -- 63
2019-04-19 12:00:00 15 5 Norte 13 Norte 0 -- -- 67
2019-04-19 11:00:00 14 4 Norte 10 Noroeste 0 -- -- 73
2019-04-19 10:00:00 12.9 3 Norte 6 Noroeste 0 -- -- 76
2019-04-19 09:00:00 11.3 0 Calma 5 Nordeste 0 -- -- 84
2019-04-19 08:00:00 10.1 3 Nordeste 10 Noroeste 0 -- -- 87
2019-04-19 07:00:00 11.8 3 Sur 6 Sudoeste 0 -- -- 76
2019-04-19 06:00:00 11.9 3 Sudeste 7 Sudeste 0 -- -- 76
2019-04-19 05:00:00 11.9 4 Sur 8 Sur 0 -- -- 75
2019-04-19 04:00:00 11.8 4 Sur 9 Sur 0 -- -- 74
2019-04-19 03:00:00 11.7 5 Sur 10 Sur 0 -- -- 74
2019-04-19 02:00:00 11.6 6 Sur 12 Sur 0 -- -- 76
2019-04-19 01:00:00 11.4 5 Sur 11 Sur 0 -- -- 77
2019-04-19 00:00:00 11.2 3 Sur 9 Sudeste 0 -- -- 79
2019-04-18 23:00:00 11 4 Sur 13 Sur 0 -- -- 78
2019-04-18 22:00:00 11.1 8 Sur 14 Sur 0 -- -- 83
2019-04-18 21:00:00 12 4 Sudoeste 6 Sudoeste 0 -- -- 84
2019-04-18 20:00:00 11.5 4 Sur 15 Noroeste 0.8 -- -- 85
2019-04-18 19:00:00 11 10 Noroeste 30 Oeste 9.4 -- -- 86
2019-04-18 18:00:00 13.2 9 Norte 22 Sudoeste 1.4 -- -- 71
2019-04-18 17:00:00 16.1 16 Oeste 31 Oeste 0 -- -- 64
2019-04-18 16:00:00 17.6 15 Oeste 31 Noroeste 0 -- -- 56
2019-04-18 15:00:00 17.4 14 Oeste 25 Oeste 0 -- -- 54
2019-04-18 14:00:00 17.2 14 Oeste 23 Oeste 0 -- -- 57
2019-04-18 13:00:00 15.7 11 Oeste 27 Oeste 0 -- -- 68
2019-04-18 12:00:00 14.1 9 Noroeste 14 Noroeste 0 -- -- 74
2019-04-18 11:00:00 13.6 6 Sudoeste 21 Sudoeste 0 -- -- 77
2019-04-18 10:00:00 13.9 9 Oeste 18 Oeste 0.2 -- -- 84
2019-04-18 09:00:00 12.9 5 Sudoeste 10 Sudoeste 0 -- -- 84
2019-04-18 08:00:00 12.7 4 Sudoeste 8 Sur 0 -- -- 83
2019-04-18 07:00:00 12.5 4 Sudeste 9 Oeste 1.4 -- -- 83
2019-04-18 06:00:00 13.6 0 Calma 6 Norte 0 -- -- 72
2019-04-18 05:00:00 14 3 Este 10 Este 0 -- -- 68
2019-04-18 04:00:00 14 0 Calma 9 Sudoeste 0 -- -- 65
2019-04-18 03:00:00 14.1 6 Sudoeste 13 Oeste 0 -- -- 65
2019-04-18 02:00:00 14.5 6 Oeste 41 Sudoeste 0 -- -- 64
2019-04-18 01:00:00 16.1 9 Sudeste 27 Este 0 -- -- 57
2019-04-18 00:00:00 15.8 13 Sudeste 25 Este 0 -- -- 58
2019-04-17 23:00:00 15.9 10 Sudeste 21 Sudoeste 0 -- -- 56
2019-04-17 22:00:00 14.9 13 Sudoeste 34 Sudoeste 0 -- -- 60
2019-04-17 21:00:00 15.1 23 Oeste 52 Oeste 0 -- -- 59
2019-04-17 20:00:00 16 28 Oeste 48 Oeste 0 -- -- 63
2019-04-17 19:00:00 19 20 Sudoeste 39 Oeste 0 -- -- 53
2019-04-17 18:00:00 21 10 Oeste 20 Oeste 0 -- -- 49
2019-04-17 17:00:00 21.4 12 Oeste 26 Sur 0 -- -- 50
2019-04-17 16:00:00 22 10 Sudoeste 29 Sur 0 -- -- 43
2019-04-17 15:00:00 21.1 15 Sur 38 Sur 0 -- -- 45
2019-04-17 14:00:00 21.6 17 Sur 41 Sudeste 0 -- -- 45
2019-04-17 13:00:00 20.4 23 Sur 66 Sur 0 -- -- 47
2019-04-17 12:00:00 19.7 39 Sudeste 80 Sudeste 0 -- -- 47
2019-04-17 11:00:00 18.9 42 Sudeste 77 Sudeste 0 -- -- 47
2019-04-17 10:00:00 18.1 44 Sudeste 78 Sudeste 0 -- -- 46
2019-04-17 09:00:00 17.7 35 Sudeste 73 Sudeste 0 -- -- 45
2019-04-17 08:00:00 17 35 Sudeste 69 Sudeste 0 -- -- 46
2019-04-17 07:00:00 16.8 33 Sudeste 64 Sudeste 0 -- -- 46
2019-04-17 06:00:00 16.7 32 Sudeste 60 Sudeste 0 -- -- 48
2019-04-17 05:00:00 16.3 30 Sudeste 59 Sudeste 0 -- -- 49
2019-04-17 04:00:00 16 28 Sudeste 66 Sudeste 0 -- -- 54
2019-04-17 03:00:00 16 28 Sudeste 59 Sudeste 0 -- -- 61
2019-04-17 02:00:00 16.6 30 Sudeste 57 Sudeste 0 -- -- 55
2019-04-17 01:00:00 17.7 31 Sudeste 60 Sudeste 0 -- -- 48
2019-04-17 00:00:00 17.9 28 Sudeste 49 Sudeste 0 -- -- 40
2019-04-16 23:00:00 18.4 18 Sudeste 39 Sudeste 0 -- -- 36
2019-04-16 22:00:00 19.6 18 Sudeste 31 Sudeste 0 -- -- 37
2019-04-16 21:00:00 21.5 15 Sudeste 28 Sudeste 0 -- -- 36
2019-04-16 20:00:00 23.9 14 Sudeste 27 Sudeste 0 -- -- 34
2019-04-16 19:00:00 25.3 12 Sudeste 28 Sudeste 0 -- -- 32
2019-04-16 18:00:00 25.6 16 Sudeste 32 Sudeste 0 -- -- 28
2019-04-16 17:00:00 25.3 15 Sudeste 32 Sudeste 0 -- -- 32
2019-04-16 16:00:00 25.6 12 Sur 24 Sur 0 -- -- 31
2019-04-16 15:00:00 23.9 10 Noroeste 19 Nordeste 0 -- -- 39
2019-04-16 14:00:00 21.9 6 Norte 20 Este 0 -- -- 48
2019-04-16 13:00:00 20.1 9 Nordeste 21 Norte 0 -- -- 55
2019-04-16 12:00:00 18.5 7 Norte 14 Nordeste 0 -- -- 60
2019-04-16 11:00:00 17.2 4 Nordeste 12 Este 0 -- -- 65
2019-04-16 10:00:00 15.9 4 Este 12 Este 0 -- -- 68
2019-04-16 09:00:00 14.2 6 Sudeste 11 Este 0 -- -- 73
2019-04-16 08:00:00 13.1 6 Este 11 Este 0 -- -- 76
2019-04-16 07:00:00 12.4 2 Nordeste 4 Nordeste 0 -- -- 79
2019-04-16 06:00:00 12.7 0 Calma 4 Nordeste 0 -- -- 78
2019-04-16 05:00:00 13.4 2 Norte 7 Sur 0 -- -- 75
2019-04-16 04:00:00 14 4 Sur 9 Sur 0 -- -- 74
2019-04-16 03:00:00 14.3 5 Sur 12 Sur 0 -- -- 73
2019-04-16 02:00:00 14.3 7 Sudoeste 16 Sudoeste 0 -- -- 73
2019-04-16 01:00:00 14.7 7 Sudoeste 14 Sudoeste 0 -- -- 71
2019-04-16 00:00:00 15.2 11 Sudoeste 22 Sudoeste 0 -- -- 70
2019-04-15 23:00:00 15.9 15 Sudoeste 29 Oeste 0 -- -- 71
2019-04-15 22:00:00 16.9 18 Oeste 32 Sudoeste 0 -- -- 68
2019-04-15 21:00:00 18.3 23 Oeste 47 Oeste 0 -- -- 61
2019-04-15 20:00:00 20.8 26 Sudoeste 46 Oeste 0 -- -- 51
2019-04-15 19:00:00 23.2 29 Oeste 55 Sudoeste 0 -- -- 39
2019-04-15 18:00:00 24.7 32 Oeste 47 Oeste 0 -- -- 30
2019-04-15 17:00:00 25.7 26 Oeste 46 Oeste 0 -- -- 33
2019-04-15 16:00:00 25.9 23 Oeste 39 Oeste 0 -- -- 26
2019-04-15 15:00:00 25.7 28 Oeste 50 Oeste 0 -- -- 30
2019-04-15 14:00:00 25 13 Oeste 26 Oeste 0 -- -- 36
2019-04-15 13:00:00 23.6 12 Oeste 30 Oeste 0 -- -- 38
2019-04-15 12:00:00 22.2 17 Sudoeste 28 Sudoeste 0 -- -- 40
2019-04-15 11:00:00 20.3 14 Oeste 20 Oeste 0 -- -- 46
2019-04-15 10:00:00 19.6 4 Noroeste 11 Sudoeste 0 -- -- 52
2019-04-15 09:00:00 18.1 4 Sudoeste 8 Sur 0 -- -- 55
2019-04-15 08:00:00 17.1 2 Sur 12 Sudeste 0 -- -- 57
2019-04-15 07:00:00 18.2 7 Sudeste 13 Sudeste 0 -- -- 53
2019-04-15 06:00:00 18.3 4 Sudeste 15 Sudeste 0 -- -- 57
2019-04-15 05:00:00 18.3 3 Norte 15 Sudeste 0 -- -- 59
2019-04-15 04:00:00 20.2 9 Sudeste 22 Sudeste 0 -- -- 51
2019-04-15 03:00:00 20.4 12 Sudeste 18 Sudeste 0 -- -- 53
2019-04-15 02:00:00 21.2 8 Sudeste 15 Sudeste 0 -- -- 50
2019-04-15 01:00:00 21.3 8 Sudeste 14 Sudeste 0 -- -- 50
2019-04-15 00:00:00 21.5 9 Sudeste 14 Sudeste 0 -- -- 51
2019-04-14 23:00:00 22 5 Sudeste 8 Este 0 -- -- 50
2019-04-14 22:00:00 22.9 0 Calma 5 Este 0 -- -- 46
2019-04-14 21:00:00 23.4 3 Norte 8 Noroeste 0 -- -- 45
2019-04-14 20:00:00 24.9 5 Norte 14 Noroeste 0 -- -- 40
2019-04-14 19:00:00 25.8 7 Norte 18 Noroeste 0 -- -- 37
2019-04-14 18:00:00 25.6 7 Nordeste 17 Norte 0 -- -- 37
2019-04-14 17:00:00 25.8 4 Noroeste 14 Noroeste 0 -- -- 37
2019-04-14 16:00:00 25.2 6 Norte 20 Noroeste 0 -- -- 36
2019-04-14 15:00:00 24.2 4 Norte 14 Noroeste 0 -- -- 37
2019-04-14 14:00:00 23.1 5 Noroeste 13 Norte 0 -- -- 36
2019-04-14 13:00:00 21.8 6 Nordeste 14 Nordeste 0 -- -- 41
2019-04-14 12:00:00 20.3 5 Norte 13 Norte 0 -- -- 43
2019-04-14 11:00:00 17.9 5 Norte 9 Noroeste 0 -- -- 51
2019-04-14 10:00:00 16.1 4 Noroeste 8 Noroeste 0 -- -- 50
2019-04-14 09:00:00 15.1 0 Calma 4 Este 0 -- -- 50
2019-04-14 08:00:00 13.8 0 Calma 7 Este 0 -- -- 51
2019-04-14 07:00:00 13.8 6 Sudeste 11 Sudeste 0 -- -- 50
2019-04-14 06:00:00 14.5 0 Calma 5 Nordeste 0 -- -- 48
2019-04-14 05:00:00 15.3 2 Sudeste 11 Sudeste 0 -- -- 44
2019-04-14 04:00:00 15.2 7 Sudeste 15 Sur 0 -- -- 46
2019-04-14 03:00:00 14.8 9 Sur 15 Sudeste 0 -- -- 51
2019-04-14 02:00:00 15 6 Sudoeste 13 Sur 0 -- -- 52
2019-04-14 01:00:00 15 5 Sur 12 Sudoeste 0 -- -- 54
2019-04-14 00:00:00 15.5 6 Sudoeste 16 Sudoeste 0 -- -- 49
2019-04-13 23:00:00 16.7 8 Sudoeste 21 Oeste 0 -- -- 48
2019-04-13 22:00:00 18.2 12 Oeste 27 Oeste 0 -- -- 46
2019-04-13 21:00:00 20.6 8 Oeste 18 Oeste 0 -- -- 36
2019-04-13 20:00:00 22.2 14 Oeste 24 Oeste 0 -- -- 33
2019-04-13 19:00:00 23.4 13 Oeste 22 Noroeste 0 -- -- 31
2019-04-13 18:00:00 23.5 13 Noroeste 22 Noroeste 0 -- -- 28
2019-04-13 17:00:00 23 5 Noroeste 19 Noroeste 0 -- -- 28
2019-04-13 16:00:00 22.5 5 Norte 16 Noroeste 0 -- -- 28
2019-04-13 15:00:00 22 7 Noroeste 15 Noroeste 0 -- -- 31
2019-04-13 14:00:00 21 5 Sudeste 17 Norte 0 -- -- 29
2019-04-13 13:00:00 19.8 5 Noroeste 11 Noroeste 0 -- -- 40
2019-04-13 12:00:00 18.2 7 Oeste 13 Noroeste 0 -- -- 51
2019-04-13 11:00:00 16.9 5 Noroeste 10 Noroeste 0 -- -- 49
2019-04-13 10:00:00 15.6 3 Oeste 5 Este 0 -- -- 56
2019-04-13 09:00:00 13.7 3 Este 6 Sudeste 0 -- -- 54
2019-04-13 08:00:00 12 2 Este 4 Este 0 -- -- 59
2019-04-13 07:00:00 12.3 2 Este 4 Noroeste 0 -- -- 56
2019-04-13 06:00:00 13.5 0 Calma 9 Sudoeste 0 -- -- 51
2019-04-13 05:00:00 14.1 4 Sur 13 Sur 0 -- -- 48
2019-04-13 04:00:00 14.4 6 Sur 13 Sur 0 -- -- 49
2019-04-13 03:00:00 14.7 6 Sur 14 Sur 0 -- -- 48
2019-04-13 02:00:00 14.3 9 Sur 15 Sur 0 -- -- 51
2019-04-13 01:00:00 13.8 8 Sur 14 Sudoeste 0 -- -- 56
2019-04-13 00:00:00 14.7 8 Sudoeste 14 Sudoeste 0 -- -- 52
2019-04-12 23:00:00 16.1 6 Sudoeste 18 Oeste 0 -- -- 46
2019-04-12 22:00:00 17.9 5 Sur 9 Sudoeste 0 -- -- 40
2019-04-12 21:00:00 19.5 2 Oeste 8 Norte 0 -- -- 36
2019-04-12 20:00:00 21.2 4 Noroeste 17 Oeste 0 -- -- 33
2019-04-12 19:00:00 21.4 11 Noroeste 18 Oeste 0 -- -- 28
2019-04-12 18:00:00 21.4 10 Noroeste 19 Noroeste 0 -- -- 33
2019-04-12 17:00:00 21.1 5 Sudoeste 20 Noroeste 0 -- -- 32
2019-04-12 16:00:00 20.8 8 Noroeste 22 Oeste 0 -- -- 33
2019-04-12 15:00:00 20.3 8 Noroeste 23 Oeste 0 -- -- 34
2019-04-12 14:00:00 19.8 6 Noroeste 16 Noroeste 0 -- -- 32
2019-04-12 13:00:00 18.9 3 Nordeste 12 Nordeste 0 -- -- 43
2019-04-12 12:00:00 18 4 Este 11 Este 0 -- -- 48
2019-04-12 11:00:00 16.4 2 Sudeste 13 Sudeste 0 -- -- 55
2019-04-12 10:00:00 13.9 7 Sudeste 15 Sudeste 0 -- -- 69
2019-04-12 09:00:00 11.9 8 Sudeste 13 Sudeste 0 -- -- 72
2019-04-12 08:00:00 10.4 0 Calma 6 Sudeste 0 -- -- 78
2019-04-12 07:00:00 10.7 5 Sudeste 6 Sudeste 0 -- -- 76
2019-04-12 06:00:00 11.4 0 Calma 7 Nordeste 0 -- -- 72
2019-04-12 05:00:00 11.9 2 Norte 5 Sur 0 -- -- 69
2019-04-12 04:00:00 12.6 3 Sur 6 Sudeste 0 -- -- 67
2019-04-12 03:00:00 12.8 0 Calma 9 Sudeste 0 -- -- 68
2019-04-12 02:00:00 13.1 5 Sur 12 Sudoeste 0 -- -- 68
2019-04-12 01:00:00 13.3 6 Sudoeste 13 Sur 0 -- -- 69
2019-04-12 00:00:00 13.9 6 Sudoeste 15 Sudoeste 0 -- -- 67
2019-04-11 23:00:00 14.7 5 Oeste 17 Oeste 0 -- -- 64
2019-04-11 22:00:00 16.7 0 Calma 3 Este 0 -- -- 49
2019-04-11 21:00:00 17.2 0 Calma 8 Oeste 0 -- -- 47
2019-04-11 20:00:00 18.7 5 Noroeste 14 Noroeste 0 -- -- 42
2019-04-11 19:00:00 19.4 8 Noroeste 19 Noroeste 0 -- -- 39
2019-04-11 18:00:00 19.2 10 Noroeste 18 Noroeste 0 -- -- 39
2019-04-11 17:00:00 19.2 9 Noroeste 19 Noroeste 0 -- -- 41
2019-04-11 16:00:00 18.2 8 Noroeste 19 Noroeste 0 -- -- 48
2019-04-11 15:00:00 17.1 9 Noroeste 19 Oeste 0 -- -- 52
2019-04-11 14:00:00 16.6 10 Noroeste 18 Noroeste 0 -- -- 57
2019-04-11 13:00:00 15.3 6 Noroeste 14 Noroeste 0 -- -- 59
2019-04-11 12:00:00 14.2 4 Norte 10 Noroeste 0 -- -- 61
2019-04-11 11:00:00 12.4 3 Norte 10 Norte 0 -- -- 67
2019-04-11 10:00:00 11.6 3 Norte 7 Noroeste 0 -- -- 68
2019-04-11 09:00:00 10.5 0 Calma 8 Sudoeste 0 -- -- 72
2019-04-11 08:00:00 9.5 2 Sur 7 Sudoeste 0 -- -- 74
2019-04-11 07:00:00 10 4 Sudoeste 7 Sudoeste 0 -- -- 72
2019-04-11 06:00:00 10.3 3 Sur 8 Sur 0 -- -- 72
2019-04-11 05:00:00 10.6 4 Sur 8 Sur 0 -- -- 70
2019-04-11 04:00:00 10.7 6 Sur 8 Sur 0 -- -- 69
2019-04-11 03:00:00 11.1 4 Sur 7 Sur 0 -- -- 66
2019-04-11 02:00:00 11.8 4 Sur 15 Oeste 0 -- -- 63
2019-04-11 01:00:00 11.8 0 Calma 7 Noroeste 0 -- -- 63
2019-04-11 00:00:00 12.4 2 Oeste 9 Oeste 0 -- -- 61
2019-04-10 23:00:00 12.8 3 Oeste 9 Noroeste 0 -- -- 59
2019-04-10 22:00:00 13.5 3 Noroeste 15 Noroeste 0 -- -- 59
2019-04-10 21:00:00 15.3 9 Noroeste 26 Noroeste 0 -- -- 53
2019-04-10 20:00:00 17.5 21 Noroeste 32 Noroeste 0 -- -- 44
2019-04-10 19:00:00 18.4 18 Noroeste 39 Oeste 0 -- -- 43
2019-04-10 18:00:00 16.8 14 Oeste 29 Oeste 0 -- -- 55
2019-04-10 17:00:00 17.5 19 Oeste 32 Oeste 0 -- -- 53
2019-04-10 16:00:00 15.7 14 Noroeste 27 Noroeste 0 -- -- 54
2019-04-10 15:00:00 15.8 18 Oeste 30 Oeste 0 -- -- 54
2019-04-10 14:00:00 14.3 17 Noroeste 32 Oeste 0 -- -- 58
2019-04-10 13:00:00 13.3 14 Noroeste 25 Noroeste 0 -- -- 62
2019-04-10 12:00:00 12.3 13 Oeste 23 Oeste 0 -- -- 67
2019-04-10 11:00:00 11 15 Noroeste 24 Oeste 0 -- -- 74
2019-04-10 10:00:00 10.5 13 Oeste 21 Oeste 0 -- -- 79
2019-04-10 09:00:00 8.7 5 Sudoeste 9 Sudoeste 0 -- -- 83
2019-04-10 08:00:00 8.1 4 Sur 10 Sudoeste 0 -- -- 85
2019-04-10 07:00:00 8.3 5 Sudoeste 12 Sudoeste 0 -- -- 85
2019-04-10 06:00:00 8.9 6 Sudoeste 14 Sudoeste 0 -- -- 85
2019-04-10 05:00:00 9.6 5 Oeste 9 Oeste 0 -- -- 85
2019-04-10 04:00:00 10.6 4 Oeste 8 Oeste 0 -- -- 84
2019-04-10 03:00:00 11.2 4 Oeste 11 Oeste 0 -- -- 83
2019-04-10 02:00:00 11.6 9 Oeste 17 Oeste 0 -- -- 81
2019-04-10 01:00:00 11.7 9 Oeste 19 Sudoeste 0 -- -- 83
2019-04-10 00:00:00 11.8 11 Oeste 25 Oeste 0 -- -- 82
2019-04-09 23:00:00 12.2 11 Sudoeste 21 Oeste 0 -- -- 80
2019-04-09 22:00:00 12.9 14 Oeste 36 Oeste 0 -- -- 76
2019-04-09 21:00:00 13.8 26 Oeste 43 Oeste 0 -- -- 70
2019-04-09 20:00:00 15.5 33 Oeste 46 Oeste 0 -- -- 62
2019-04-09 19:00:00 16.1 23 Oeste 48 Oeste 0 -- -- 60
2019-04-09 18:00:00 16 28 Oeste 45 Oeste 0 -- -- 58
2019-04-09 17:00:00 16.8 28 Oeste 38 Oeste 0 -- -- 59
2019-04-09 16:00:00 14.6 24 Noroeste 41 Oeste 0 -- -- 67
2019-04-09 15:00:00 16.7 26 Oeste 41 Oeste 0 -- -- 57
2019-04-09 14:00:00 15.3 23 Oeste 35 Oeste 0 -- -- 65
2019-04-09 13:00:00 14.9 24 Oeste 39 Oeste 0 -- -- 65
2019-04-09 12:00:00 13.9 25 Oeste 44 Oeste 0 -- -- 74
2019-04-09 11:00:00 12.6 15 Oeste 24 Oeste 0 -- -- 81
2019-04-09 10:00:00 11.3 14 Sudoeste 21 Sudoeste 0 -- -- 82
2019-04-09 09:00:00 9.3 5 Sudoeste 12 Sudoeste 0 -- -- 87
2019-04-09 08:00:00 8.8 6 Sudoeste 13 Sudoeste 0 -- -- 87
2019-04-09 07:00:00 8.8 8 Sudoeste 12 Sudoeste 0 -- -- 87
2019-04-09 06:00:00 9 5 Sudoeste 12 Sudoeste 0 -- -- 85
2019-04-09 05:00:00 9.2 5 Sudoeste 11 Sudoeste 0 -- -- 84
2019-04-09 04:00:00 9.8 6 Sudoeste 15 Sudoeste 0 -- -- 83
2019-04-09 03:00:00 10.7 8 Sudoeste 17 Sudoeste 0 -- -- 83
2019-04-09 02:00:00 11.4 13 Sudoeste 22 Sudoeste 0 -- -- 84
2019-04-09 01:00:00 12 17 Oeste 28 Sudoeste 0 -- -- 85
2019-04-09 00:00:00 12.2 18 Oeste 32 Sudoeste 0 -- -- 85
2019-04-08 23:00:00 12.4 17 Oeste 30 Oeste 0 -- -- 84
2019-04-08 22:00:00 12.9 17 Oeste 28 Sudoeste 0 -- -- 83
2019-04-08 21:00:00 13.7 14 Sudoeste 29 Oeste 0 -- -- 82
2019-04-08 20:00:00 14.7 19 Oeste 36 Sudoeste 0 -- -- 80
2019-04-08 19:00:00 15.1 22 Oeste 41 Oeste 0 -- -- 80
2019-04-08 18:00:00 15.1 26 Sudoeste 44 Oeste 0 -- -- 80
2019-04-08 17:00:00 16 33 Sudoeste 54 Oeste 0 -- -- 78
2019-04-08 16:00:00 15.1 25 Sudoeste 51 Sudoeste 0.2 -- -- 84
2019-04-08 15:00:00 15.5 24 Oeste 39 Oeste 0.6 -- -- 84
2019-04-08 14:00:00 14.8 15 Sudoeste 31 Oeste 2.2 -- -- 90
2019-04-08 13:00:00 15 15 Oeste 34 Oeste 0.2 -- -- 84
2019-04-08 12:00:00 15.3 23 Oeste 37 Oeste 0.2 -- -- 80
2019-04-08 11:00:00 13.8 23 Oeste 48 Oeste 0 -- -- 87
2019-04-08 10:00:00 14 11 Sudoeste 24 Sudoeste 0 -- -- 86
2019-04-08 09:00:00 12.8 6 Oeste 17 Sudoeste 0 -- -- 91
2019-04-08 08:00:00 12.6 9 Oeste 20 Sudoeste 0 -- -- 91
2019-04-08 07:00:00 12.6 11 Sudoeste 21 Sudoeste 0 -- -- 92
2019-04-08 06:00:00 12.8 14 Sudoeste 22 Sudoeste 0 -- -- 91
2019-04-08 05:00:00 13.1 12 Sudoeste 21 Sudoeste 0 -- -- 90
2019-04-08 04:00:00 13.2 10 Sudoeste 18 Oeste 0 -- -- 91
2019-04-08 03:00:00 13.2 10 Sudoeste 24 Oeste 0.2 -- -- 91
2019-04-08 02:00:00 13.4 14 Sudoeste 26 Sudoeste 0 -- -- 91
2019-04-08 01:00:00 13.2 12 Sudoeste 32 Sudoeste 0 -- -- 91
2019-04-08 00:00:00 13.1 15 Oeste 40 Oeste 4 -- -- 93
2019-04-07 23:00:00 13.5 21 Oeste 33 Sudoeste 0 -- -- 92
2019-04-07 22:00:00 13.8 24 Oeste 40 Oeste 0.4 -- -- 92
2019-04-07 21:00:00 14 24 Oeste 60 Oeste 0.2 -- -- 92
2019-04-07 20:00:00 13.9 22 Sudoeste 34 Oeste 0.4 -- -- 92
2019-04-07 19:00:00 13.4 14 Sudoeste 24 Sudoeste 0.2 -- -- 89
2019-04-07 18:00:00 13.8 16 Oeste 31 Sudoeste 0 -- -- 84
2019-04-07 17:00:00 14.3 21 Oeste 39 Oeste 0 -- -- 78
2019-04-07 16:00:00 13.5 22 Oeste 37 Oeste 0 -- -- 82
2019-04-07 15:00:00 14.6 29 Oeste 42 Oeste 0 -- -- 70
2019-04-07 14:00:00 14.3 23 Oeste 37 Oeste 0 -- -- 69
2019-04-07 13:00:00 14.2 23 Oeste 36 Noroeste 0 -- -- 66
2019-04-07 12:00:00 13.2 21 Oeste 30 Oeste 0.2 -- -- 72
2019-04-07 11:00:00 11.6 13 Oeste 18 Oeste 0 -- -- 83
2019-04-07 10:00:00 10.5 10 Oeste 16 Oeste 0 -- -- 86
2019-04-07 09:00:00 9.7 5 Oeste 14 Oeste 0.2 -- -- 89
2019-04-07 08:00:00 9.4 8 Oeste 19 Oeste 0 -- -- 88
2019-04-07 07:00:00 9.5 12 Oeste 22 Oeste 0 -- -- 86
2019-04-07 06:00:00 9.6 9 Oeste 22 Oeste 0 -- -- 84
2019-04-07 05:00:00 9.7 17 Oeste 30 Oeste 0 -- -- 82
2019-04-07 04:00:00 9.8 19 Oeste 31 Oeste 0 -- -- 81
2019-04-07 03:00:00 9.7 18 Oeste 33 Oeste 0 -- -- 82
2019-04-07 02:00:00 9.5 18 Oeste 33 Oeste 0 -- -- 81
2019-04-07 01:00:00 9.8 21 Oeste 35 Oeste 0 -- -- 79
2019-04-07 00:00:00 10.5 23 Oeste 47 Oeste 0 -- -- 80
2019-04-06 23:00:00 10.8 26 Oeste 40 Oeste 0 -- -- 83
2019-04-06 22:00:00 10.8 24 Oeste 35 Oeste 0 -- -- 85
2019-04-06 21:00:00 9.9 8 Sudoeste 18 Sudoeste 0 -- -- 87
2019-04-06 20:00:00 10.3 14 Oeste 37 Oeste 1.2 -- -- 85
2019-04-06 19:00:00 10.9 17 Oeste 48 Norte 1.2 -- -- 88
2019-04-06 18:00:00 12.2 27 Oeste 57 Oeste 0.4 -- -- 79
2019-04-06 17:00:00 9.3 13 Oeste 45 Oeste 5.4 -- -- 93
2019-04-06 16:00:00 10 14 Noroeste 51 Oeste 0.8 -- -- 81
2019-04-06 15:00:00 14.9 33 Oeste 51 Oeste 0 -- -- 54
2019-04-06 14:00:00 13.8 28 Oeste 50 Oeste 0 -- -- 60
2019-04-06 13:00:00 12.8 29 Oeste 40 Oeste 0 -- -- 63
2019-04-06 12:00:00 11.2 22 Oeste 35 Oeste 0 -- -- 75
2019-04-06 11:00:00 10.7 19 Oeste 32 Oeste 0 -- -- 75
2019-04-06 10:00:00 9.6 12 Sudoeste 23 Sudoeste 0 -- -- 80
2019-04-06 09:00:00 8.6 8 Sudoeste 15 Sudoeste 0 -- -- 85
2019-04-06 08:00:00 7.8 6 Sudoeste 15 Sudoeste 0 -- -- 84
2019-04-06 07:00:00 7.6 9 Sudoeste 19 Oeste 0 -- -- 84
2019-04-06 06:00:00 7.6 11 Oeste 19 Oeste 0 -- -- 85
2019-04-06 05:00:00 7.8 14 Oeste 22 Oeste 0 -- -- 83
2019-04-06 04:00:00 7.9 14 Oeste 28 Oeste 0 -- -- 81
2019-04-06 03:00:00 8 17 Oeste 26 Oeste 0 -- -- 80
2019-04-06 02:00:00 7.9 15 Oeste 24 Sudoeste 0 -- -- 79
2019-04-06 01:00:00 8.2 18 Oeste 31 Oeste 0 -- -- 79
2019-04-06 00:00:00 8.7 21 Oeste 38 Oeste 0 -- -- 78
2019-04-05 23:00:00 9.3 25 Oeste 41 Oeste 0 -- -- 76
2019-04-05 22:00:00 9 18 Oeste 27 Oeste 0 -- -- 79
2019-04-05 21:00:00 10.6 22 Oeste 37 Sudoeste 0 -- -- 71
2019-04-05 20:00:00 11.1 21 Oeste 53 Oeste 0 -- -- 68
2019-04-05 19:00:00 12.8 32 Oeste 56 Oeste 0 -- -- 57
2019-04-05 18:00:00 13.6 37 Oeste 54 Oeste 0 -- -- 49
2019-04-05 17:00:00 13.2 40 Oeste 59 Oeste 0 -- -- 52
2019-04-05 16:00:00 11.3 25 Oeste 47 Oeste 0 -- -- 69
2019-04-05 15:00:00 12.9 31 Oeste 47 Oeste 0 -- -- 59
2019-04-05 14:00:00 12 28 Oeste 42 Oeste 0.2 -- -- 77
2019-04-05 13:00:00 10.6 21 Oeste 30 Oeste 0.2 -- -- 85
2019-04-05 12:00:00 9.9 18 Oeste 38 Oeste 2.2 -- -- 88
2019-04-05 11:00:00 9.8 12 Sudoeste 40 Sudoeste 2.4 -- -- 86
2019-04-05 10:00:00 10.3 14 Sudoeste 24 Sudoeste 0.8 -- -- 84
2019-04-05 09:00:00 9.7 6 Sur 32 Oeste 4.6 -- -- 88
2019-04-05 08:00:00 10 14 Sur 26 Sur 1 -- -- 84
2019-04-05 07:00:00 10 9 Sur 17 Sur 0.4 -- -- 83
2019-04-05 06:00:00 9.9 8 Sudoeste 31 Sudoeste 0 -- -- 82
2019-04-05 05:00:00 10.8 9 Sudoeste 17 Sudoeste 0 -- -- 70
2019-04-05 04:00:00 10.8 8 Sudoeste 23 Sudoeste 0 -- -- 63
2019-04-05 03:00:00 10.8 13 Sudoeste 29 Oeste 0 -- -- 61
2019-04-05 02:00:00 11 21 Sudoeste 39 Oeste 0 -- -- 61
2019-04-05 01:00:00 10.8 17 Sudoeste 37 Sudoeste 0 -- -- 60
2019-04-05 00:00:00 10.9 21 Sudoeste 36 Sudoeste 0 -- -- 55
2019-04-04 23:00:00 11.4 22 Sudoeste 36 Sudoeste 0 -- -- 50
2019-04-04 22:00:00 12.4 19 Sudoeste 33 Sudoeste 0 -- -- 42
2019-04-04 21:00:00 13.8 18 Sudoeste 39 Sudoeste 0 -- -- 34
2019-04-04 20:00:00 15.8 27 Oeste 45 Oeste 0 -- -- 32
2019-04-04 19:00:00 17 34 Oeste 62 Oeste 0 -- -- 37
2019-04-04 18:00:00 18.2 26 Oeste 41 Oeste 0 -- -- 33
2019-04-04 17:00:00 18.3 24 Oeste 41 Oeste 0 -- -- 30
2019-04-04 16:00:00 17.5 28 Oeste 39 Oeste 0 -- -- 32
2019-04-04 15:00:00 16.9 24 Oeste 36 Oeste 0 -- -- 34
2019-04-04 14:00:00 15.9 18 Oeste 28 Oeste 0 -- -- 40
2019-04-04 13:00:00 14.5 11 Oeste 25 Oeste 0 -- -- 41
2019-04-04 12:00:00 12.5 6 Oeste 19 Oeste 0 -- -- 45
2019-04-04 11:00:00 11 6 Noroeste 14 Noroeste 0 -- -- 48
2019-04-04 10:00:00 9.7 4 Norte 9 Noroeste 0 -- -- 49
2019-04-04 09:00:00 8.3 0 Calma 6 Sudoeste 0 -- -- 54
2019-04-04 08:00:00 8 2 Sur 8 Sur 0 -- -- 56
2019-04-04 07:00:00 8.5 2 Sur 5 Sur 0 -- -- 61
2019-04-04 06:00:00 8.9 2 Sur 7 Sudoeste 0 -- -- 62
2019-04-04 05:00:00 9.6 3 Sudoeste 5 Sudoeste 0 -- -- 67
2019-04-04 04:00:00 10.3 2 Oeste 5 Noroeste 0 -- -- 67
2019-04-04 03:00:00 11.2 4 Noroeste 8 Oeste 0 -- -- 65
2019-04-04 02:00:00 12.3 0 Calma 10 Sur 0 -- -- 60
2019-04-04 01:00:00 12.8 3 Sur 9 Sudoeste 0 -- -- 58
2019-04-04 00:00:00 13.3 3 Oeste 14 Sudoeste 0 -- -- 55
2019-04-03 23:00:00 14.1 6 Sudoeste 14 Oeste 0 -- -- 53
2019-04-03 22:00:00 15.3 8 Sudoeste 17 Oeste 0 -- -- 49
2019-04-03 21:00:00 16.4 12 Oeste 27 Oeste 0 -- -- 47
2019-04-03 20:00:00 19.1 22 Oeste 37 Oeste 0 -- -- 44
2019-04-03 19:00:00 20.5 27 Oeste 40 Oeste 0 -- -- 38
2019-04-03 18:00:00 21.4 30 Oeste 45 Oeste 0 -- -- 39
2019-04-03 17:00:00 21.4 26 Oeste 41 Oeste 0 -- -- 41
2019-04-03 16:00:00 21.2 24 Oeste 39 Oeste 0 -- -- 43
2019-04-03 15:00:00 20.8 19 Oeste 30 Oeste 0 -- -- 45
2019-04-03 14:00:00 19.6 12 Noroeste 22 Oeste 0 -- -- 48
2019-04-03 13:00:00 18.4 5 Noroeste 13 Noroeste 0 -- -- 53
2019-04-03 12:00:00 16.7 5 Noroeste 18 Oeste 0 -- -- 66
2019-04-03 11:00:00 15.8 5 Oeste 9 Oeste 0 -- -- 69
2019-04-03 10:00:00 14.9 3 Sudeste 5 Sudeste 0 -- -- 69
2019-04-03 09:00:00 12.9 2 Nordeste 4 Norte 0 -- -- 75
2019-04-03 08:00:00 12.6 2 Sudeste 4 Sudeste 0 -- -- 76
2019-04-03 07:00:00 13 0 Calma 8 Sur 0 -- -- 74
2019-04-03 06:00:00 13.4 4 Sur 9 Sur 0 -- -- 73
2019-04-03 05:00:00 13.6 4 Sur 12 Sur 0 -- -- 74
2019-04-03 04:00:00 13.9 7 Sur 13 Sudoeste 0 -- -- 74
2019-04-03 03:00:00 14.1 6 Sur 11 Sur 0 -- -- 74
2019-04-03 02:00:00 14.6 6 Sur 12 Sudoeste 0 -- -- 68
2019-04-03 01:00:00 15.4 5 Sudoeste 12 Sudoeste 0 -- -- 64
2019-04-03 00:00:00 15.9 4 Sur 6 Sur 0 -- -- 65
2019-04-02 23:00:00 16.4 4 Sur 7 Sur 0 -- -- 65
2019-04-02 22:00:00 16.8 2 Oeste 6 Oeste 0 -- -- 62
2019-04-02 21:00:00 17.8 4 Oeste 8 Oeste 0 -- -- 57
2019-04-02 20:00:00 18.8 5 Oeste 13 Oeste 0 -- -- 55
2019-04-02 19:00:00 20.8 8 Oeste 14 Noroeste 0 -- -- 46
2019-04-02 18:00:00 19.7 6 Noroeste 14 Noroeste 0 -- -- 50
2019-04-02 17:00:00 19.4 9 Noroeste 15 Noroeste 0 -- -- 57
2019-04-02 16:00:00 19.1 6 Noroeste 16 Noroeste 0 -- -- 54
2019-04-02 15:00:00 18.2 6 Noroeste 17 Norte 0 -- -- 61
2019-04-02 14:00:00 17 5 Nordeste 13 Norte 0 -- -- 66
2019-04-02 13:00:00 15.9 7 Norte 20 Norte 0 -- -- 74
2019-04-02 12:00:00 15.7 5 Norte 12 Nordeste 0 -- -- 73
2019-04-02 11:00:00 14.6 5 Nordeste 12 Nordeste 0 -- -- 77
2019-04-02 10:00:00 12.8 3 Noroeste 6 Norte 0 -- -- 84
2019-04-02 09:00:00 11 2 Sudeste 7 Este 0 -- -- 87
2019-04-02 08:00:00 10.6 4 Sudeste 7 Sudeste 0 -- -- 87
2019-04-02 07:00:00 10.7 4 Nordeste 7 Nordeste 0 -- -- 89
2019-04-02 06:00:00 10.7 4 Nordeste 15 Sudeste 0 -- -- 87
2019-04-02 05:00:00 12.1 12 Sudeste 17 Sudeste 0 -- -- 84
2019-04-02 04:00:00 11.7 9 Sudeste 15 Sudeste 0 -- -- 86
2019-04-02 03:00:00 12.2 5 Sudeste 11 Sur 0 -- -- 86
2019-04-02 02:00:00 12.6 6 Sur 13 Sur 0 -- -- 85
2019-04-02 01:00:00 12.8 6 Sur 11 Sur 0 -- -- 85
2019-04-02 00:00:00 13.3 7 Sur 11 Sur 0 -- -- 83
2019-04-01 23:00:00 13.5 5 Sur 10 Sur 0 -- -- 81
2019-04-01 22:00:00 13.5 6 Sudeste 12 Sudeste 0 -- -- 83
2019-04-01 21:00:00 13.8 5 Sur 8 Sur 0 -- -- 81
2019-04-01 20:00:00 13.6 0 Calma 18 Noroeste 0 -- -- 82
2019-04-01 19:00:00 14.5 11 Noroeste 23 Noroeste 0 -- -- 77
2019-04-01 18:00:00 16.4 7 Sudoeste 26 Sudoeste 0 -- -- 66
2019-04-01 17:00:00 16.6 18 Sudoeste 31 Sudoeste 0 -- -- 62
2019-04-01 16:00:00 17.6 10 Oeste 16 Oeste 0.2 -- -- 61
2019-04-01 15:00:00 15.4 4 Sudeste 10 Sudoeste 0 -- -- 73
2019-04-01 14:00:00 15.6 7 Sudoeste 22 Sudoeste 0 -- -- 71
2019-04-01 13:00:00 15.1 2 Oeste 7 Sudeste 0.2 -- -- 77
2019-04-01 12:00:00 13.9 7 Sur 27 Sudoeste 1 -- -- 78
2019-04-01 11:00:00 15.6 8 Sudoeste 17 Sudoeste 0 -- -- 64
2019-04-01 10:00:00 14.5 6 Sur 11 Sudeste 0 -- -- 69
2019-04-01 09:00:00 12.7 7 Sudeste 12 Sudeste 0 -- -- 77
2019-04-01 08:00:00 12 6 Este 13 Este 0 -- -- 77
2019-04-01 07:00:00 12.1 9 Sudeste 13 Este 0 -- -- 76
2019-04-01 06:00:00 12.2 6 Sudeste 11 Sudeste 0 -- -- 78
2019-04-01 05:00:00 12.4 6 Sudeste 10 Este 0 -- -- 80
2019-04-01 04:00:00 12.8 4 Este 12 Este 0 -- -- 79
2019-04-01 03:00:00 13.1 4 Sudeste 8 Sudeste 0 -- -- 79
2019-04-01 02:00:00 12.9 5 Sudeste 14 Sudeste 0 -- -- 82
2019-04-01 01:00:00 13.4 8 Sudeste 13 Este 0 -- -- 80
2019-04-01 00:00:00 13.4 4 Este 8 Nordeste 0 -- -- 82
2019-03-31 23:00:00 13.2 3 Este 9 Sudoeste 1.2 -- -- 83
2019-03-31 22:00:00 13.3 4 Sudoeste 13 Sur 3.6 -- -- 82
2019-03-31 21:00:00 13.2 6 Sur 27 Sudoeste 4.8 -- -- 86
2019-03-31 20:00:00 16.2 16 Sudoeste 28 Sudoeste 0 -- -- 72
2019-03-31 19:00:00 19.4 5 Norte 16 Este 0 -- -- 51
2019-03-31 18:00:00 20.3 6 Nordeste 15 Nordeste 0 -- -- 51
2019-03-31 17:00:00 19.4 5 Nordeste 14 Este 0 -- -- 54
2019-03-31 16:00:00 18.9 6 Nordeste 13 Norte 0 -- -- 58
2019-03-31 15:00:00 18.6 5 Nordeste 15 Norte 0 -- -- 61
2019-03-31 14:00:00 17.7 5 Nordeste 15 Este 0 -- -- 65
2019-03-31 13:00:00 17 6 Nordeste 14 Este 0 -- -- 67
2019-03-31 12:00:00 15.1 6 Sudeste 13 Este 0 -- -- 79
2019-03-31 11:00:00 13.9 6 Sudeste 18 Este 0 -- -- 84
2019-03-31 10:00:00 12.6 12 Este 19 Este 0 -- -- 87
2019-03-31 09:00:00 12.3 7 Sudeste 19 Sudeste 0.2 -- -- 88
2019-03-31 08:00:00 12.3 9 Sudeste 17 Sudeste 0.2 -- -- 87
2019-03-31 07:00:00 12.5 10 Sudeste 15 Este 1.6 -- -- 86
2019-03-31 06:00:00 13 6 Sudeste 12 Sudeste 0.4 -- -- 83
2019-03-31 05:00:00 13.3 7 Sudeste 19 Sudeste 0 -- -- 79
2019-03-31 03:00:00 13.2 15 Sudeste 27 Sudeste 0 -- -- 78
2019-03-31 01:00:00 13.2 17 Sudeste 30 Sudeste 0 -- -- 80
2019-03-31 00:00:00 14.2 17 Sudeste 36 Sudeste 0 -- -- 67
2019-03-30 23:00:00 14.3 21 Sudeste 44 Sudeste 0 -- -- 64
2019-03-30 22:00:00 14.3 24 Sudeste 48 Sudeste 0 -- -- 64
2019-03-30 21:00:00 14.9 17 Sudeste 33 Sudeste 0 -- -- 59
2019-03-30 20:00:00 14.9 22 Sudeste 45 Sur 0 -- -- 59
2019-03-30 19:00:00 15.5 23 Sudeste 49 Sudeste 0 -- -- 58
2019-03-30 18:00:00 16.2 23 Sudeste 43 Sudeste 0 -- -- 55
2019-03-30 17:00:00 17.9 23 Sudeste 46 Sudeste 0 -- -- 46
2019-03-30 16:00:00 17.9 28 Sudeste 53 Sudeste 0 -- -- 48
2019-03-30 15:00:00 18.4 26 Sudeste 50 Sudeste 0 -- -- 45
2019-03-30 14:00:00 18 31 Sudeste 50 Sudeste 0 -- -- 42
2019-03-30 13:00:00 18.6 25 Sudeste 50 Sur 0 -- -- 39
2019-03-30 12:00:00 17.4 21 Sudeste 58 Sudeste 0 -- -- 48
2019-03-30 11:00:00 16.1 23 Sudeste 59 Sudeste 0 -- -- 51
2019-03-30 10:00:00 15.3 22 Sudeste 50 Sudeste 0 -- -- 50
2019-03-30 09:00:00 13.7 27 Sudeste 60 Sudeste 0 -- -- 55
2019-03-30 08:00:00 12.9 28 Sudeste 51 Sudeste 0 -- -- 63
2019-03-30 07:00:00 12.6 26 Sudeste 51 Sur 0 -- -- 64
2019-03-30 06:00:00 12.4 23 Sudeste 49 Sudeste 0 -- -- 68
2019-03-30 05:00:00 12.6 23 Sudeste 45 Sudeste 0 -- -- 67
2019-03-30 04:00:00 12.7 3 Sur 44 Sudeste 0 -- -- 66
2019-03-30 03:00:00 12.8 21 Sudeste 45 Sudeste 0 -- -- 68
2019-03-30 02:00:00 13.1 27 Sudeste 49 Sudeste 0 -- -- 67
2019-03-30 01:00:00 13.3 32 Sudeste 69 Sudeste 0 -- -- 65
2019-03-30 00:00:00 13.3 28 Sudeste 54 Sudeste 0 -- -- 65
2019-03-29 23:00:00 13.4 24 Sudeste 53 Sudeste 0 -- -- 64
2019-03-29 22:00:00 13.6 29 Sudeste 56 Sudeste 0 -- -- 62
2019-03-29 21:00:00 14.2 25 Sudeste 44 Sudeste 0 -- -- 55
2019-03-29 20:00:00 14.8 18 Sudeste 41 Sudeste 0 -- -- 54
2019-03-29 19:00:00 15.8 19 Sudeste 41 Sudeste 0 -- -- 51
2019-03-29 18:00:00 16.8 21 Sudeste 39 Sudeste 0 -- -- 48
2019-03-29 17:00:00 17.4 18 Sudeste 38 Sudeste 0 -- -- 47
2019-03-29 16:00:00 18.2 21 Sudeste 39 Sudeste 0 -- -- 43
2019-03-29 15:00:00 18.5 22 Sudeste 41 Sudeste 0 -- -- 41
2019-03-29 14:00:00 18.4 21 Sudeste 47 Sudeste 0 -- -- 40
2019-03-29 13:00:00 17.6 25 Sudeste 48 Sudeste 0 -- -- 42
2019-03-29 12:00:00 16.9 25 Sudeste 49 Sudeste 0 -- -- 44
2019-03-29 11:00:00 15.8 28 Sudeste 57 Sudeste 0 -- -- 47
2019-03-29 10:00:00 14.4 28 Sudeste 51 Sur 0 -- -- 53
2019-03-29 09:00:00 13.2 25 Sudeste 51 Sudeste 0 -- -- 54
2019-03-29 08:00:00 12.5 24 Sudeste 50 Sudeste 0 -- -- 52
2019-03-29 07:00:00 12.2 24 Sudeste 49 Sudeste 0 -- -- 51
2019-03-29 06:00:00 12.3 23 Sudeste 47 Este 0 -- -- 50
2019-03-29 05:00:00 12.2 23 Sudeste 50 Sudeste 0 -- -- 49
2019-03-29 04:00:00 12.3 24 Sudeste 48 Sudeste 0 -- -- 50
2019-03-29 03:00:00 11.9 18 Este 39 Sudeste 0 -- -- 53
2019-03-29 02:00:00 12 17 Sudeste 43 Sudeste 0 -- -- 61
2019-03-29 01:00:00 12.2 20 Sudeste 40 Sudeste 0 -- -- 61
2019-03-29 00:00:00 12.4 10 Este 40 Sudeste 0 -- -- 65
2019-03-28 23:00:00 12.5 22 Sudeste 59 Sudeste 0 -- -- 64
2019-03-28 22:00:00 12.5 23 Sudeste 49 Sudeste 0 -- -- 64
2019-03-28 21:00:00 13 25 Sudeste 43 Sudeste 0 -- -- 54
2019-03-28 20:00:00 13.9 19 Sudeste 44 Sudeste 0 -- -- 41
2019-03-28 19:00:00 15.7 20 Sudeste 44 Sudeste 0 -- -- 34
2019-03-28 18:00:00 17 24 Sudeste 48 Sudeste 0 -- -- 32
2019-03-28 17:00:00 17.7 29 Sudeste 49 Sur 0 -- -- 26
2019-03-28 16:00:00 18.2 26 Sudeste 51 Sudeste 0 -- -- 23
2019-03-28 15:00:00 18.3 27 Sudeste 55 Sudeste 0 -- -- 23
2019-03-28 14:00:00 18.2 23 Sudeste 46 Sudeste 0 -- -- 30
2019-03-28 13:00:00 17.6 24 Sudeste 54 Sudeste 0 -- -- 33
2019-03-28 12:00:00 16.3 25 Sudeste 52 Sudeste 0 -- -- 40
2019-03-28 11:00:00 15.2 24 Sudeste 50 Sudeste 0 -- -- 43
2019-03-28 10:00:00 13.9 25 Sudeste 52 Sudeste 0 -- -- 47
2019-03-28 09:00:00 12.7 17 Sudeste 41 Sudeste 0 -- -- 54
2019-03-28 08:00:00 11 14 Sudeste 27 Sudeste 0 -- -- 64
2019-03-28 07:00:00 10.4 14 Sudeste 27 Sudeste 0 -- -- 68
2019-03-28 06:00:00 11 16 Sudeste 31 Sudeste 0 -- -- 67
2019-03-28 05:00:00 11 13 Este 35 Este 0 -- -- 65
2019-03-28 04:00:00 11.4 8 Sudeste 28 Sudeste 0 -- -- 62
2019-03-28 03:00:00 12 10 Sudeste 27 Sudeste 0 -- -- 67
2019-03-28 02:00:00 12.4 15 Sudeste 40 Sudeste 0 -- -- 68
2019-03-28 01:00:00 12.6 21 Sudeste 43 Sudeste 0 -- -- 67
2019-03-28 00:00:00 12.8 21 Sudeste 42 Sudeste 0 -- -- 64
2019-03-27 23:00:00 13 20 Sudeste 49 Sudeste 0 -- -- 61
2019-03-27 22:00:00 13.3 20 Sudeste 41 Sudeste 0 -- -- 57
2019-03-27 21:00:00 13.3 23 Sudeste 42 Sudeste 0 -- -- 55
2019-03-27 20:00:00 14.2 16 Sudeste 35 Sudeste 0 -- -- 50
2019-03-27 19:00:00 16 20 Sudeste 36 Sudeste 0 -- -- 41
2019-03-27 18:00:00 17.6 20 Sudeste 38 Sudeste 0 -- -- 37
2019-03-27 17:00:00 18.9 14 Sudeste 29 Sudeste 0 -- -- 32
2019-03-27 16:00:00 19.4 13 Sur 28 Sudeste 0 -- -- 30
2019-03-27 15:00:00 19.1 10 Sudeste 28 Sudeste 0 -- -- 31
2019-03-27 14:00:00 18.7 14 Sur 24 Sudeste 0 -- -- 30
2019-03-27 13:00:00 18.1 10 Sur 25 Sudeste 0 -- -- 35
2019-03-27 12:00:00 17.2 11 Este 24 Sudeste 0 -- -- 39
2019-03-27 11:00:00 15.8 13 Este 23 Sudeste 0 -- -- 39
2019-03-27 10:00:00 14.7 13 Sudeste 28 Sudeste 0 -- -- 46
2019-03-27 09:00:00 13.4 9 Este 27 Sudeste 0 -- -- 51
2019-03-27 08:00:00 11.7 12 Sudeste 36 Sudeste 0 -- -- 54
2019-03-27 07:00:00 11.6 19 Sudeste 34 Sudeste 0 -- -- 54
2019-03-27 06:00:00 12 8 Este 33 Sudeste 0 -- -- 56
2019-03-27 05:00:00 12.2 17 Sudeste 41 Este 0 -- -- 60
2019-03-27 04:00:00 12.4 16 Sudeste 51 Sudeste 0 -- -- 61
2019-03-27 03:00:00 13.1 22 Sudeste 40 Sudeste 0 -- -- 60
2019-03-27 02:00:00 13.9 18 Sudeste 37 Sudeste 0 -- -- 57
2019-03-27 01:00:00 14.1 16 Sudeste 29 Sudeste 0 -- -- 55
2019-03-27 00:00:00 14.8 17 Sudeste 44 Sudeste 0 -- -- 64
2019-03-26 23:00:00 15.2 22 Sudeste 51 Sudeste 0 -- -- 65
2019-03-26 22:00:00 15.8 17 Sudeste 45 Sudeste 0 -- -- 60
2019-03-26 21:00:00 16.2 21 Sudeste 42 Sudeste 0 -- -- 56
2019-03-26 20:00:00 16.5 22 Sudeste 39 Sudeste 0 -- -- 53
2019-03-26 19:00:00 18.1 15 Sudeste 29 Sur 0 -- -- 47
2019-03-26 18:00:00 19.4 18 Sudeste 32 Sudeste 0 -- -- 41
2019-03-26 17:00:00 20.6 15 Sudeste 51 Sudeste 0 -- -- 37
2019-03-26 16:00:00 21.1 25 Sudeste 46 Sudeste 0 -- -- 33
2019-03-26 15:00:00 22.1 26 Sudeste 42 Sudeste 0 -- -- 33
2019-03-26 14:00:00 22.2 21 Sudeste 45 Sudeste 0 -- -- 34
2019-03-26 13:00:00 22.2 21 Sudeste 49 Sudeste 0 -- -- 34
2019-03-26 12:00:00 21.3 23 Sudeste 54 Sudeste 0 -- -- 34
2019-03-26 11:00:00 19.7 18 Sudeste 32 Sudeste 0 -- -- 39
2019-03-26 10:00:00 17.1 18 Sudeste 36 Sudeste 0 -- -- 46
2019-03-26 09:00:00 15.4 14 Este 32 Sudeste 0 -- -- 52
2019-03-26 08:00:00 14.6 14 Sudeste 28 Este 0 -- -- 54
2019-03-26 07:00:00 14.6 15 Sudeste 33 Este 0 -- -- 55
2019-03-26 06:00:00 14.5 15 Este 28 Este 0 -- -- 58
2019-03-26 05:00:00 14.8 11 Este 36 Este 0 -- -- 58
2019-03-26 04:00:00 15.3 18 Sudeste 42 Sudeste 0 -- -- 56
2019-03-26 03:00:00 15.6 19 Sudeste 49 Sudeste 0 -- -- 56
2019-03-26 02:00:00 15.4 23 Este 46 Sudeste 0 -- -- 59
2019-03-26 01:00:00 15.4 21 Sudeste 42 Este 0 -- -- 59
2019-03-26 00:00:00 15.7 22 Sudeste 45 Sudeste 0 -- -- 57
2019-03-25 23:00:00 16 17 Sudeste 54 Sudeste 0 -- -- 55
2019-03-25 22:00:00 16.5 21 Sudeste 41 Sudeste 0 -- -- 52
2019-03-25 21:00:00 17.1 18 Sudeste 38 Sudeste 0 -- -- 48
2019-03-25 20:00:00 17.8 18 Sudeste 36 Sudeste 0 -- -- 45
2019-03-25 19:00:00 19.3 18 Sudeste 39 Sudeste 0 -- -- 43
2019-03-25 18:00:00 20.8 18 Sudeste 39 Sudeste 0 -- -- 41
2019-03-25 17:00:00 21.7 16 Sudeste 33 Sur 0 -- -- 40
2019-03-25 16:00:00 22.2 17 Sudeste 30 Sudeste 0 -- -- 37
2019-03-25 15:00:00 21.9 18 Sudeste 39 Este 0 -- -- 38
2019-03-25 14:00:00 21.5 15 Sudeste 32 Sudeste 0 -- -- 39
2019-03-25 13:00:00 20.9 13 Sudeste 31 Sudeste 0 -- -- 40
2019-03-25 12:00:00 20 8 Este 24 Este 0 -- -- 41
2019-03-25 11:00:00 18.9 11 Sudeste 24 Sudeste 0 -- -- 42
2019-03-25 10:00:00 16.3 11 Sudeste 27 Sudeste 0 -- -- 50
2019-03-25 09:00:00 13.7 14 Sudeste 24 Sudeste 0 -- -- 58
2019-03-25 08:00:00 12.3 11 Este 23 Sudeste 0 -- -- 66
2019-03-25 07:00:00 12.5 10 Sudeste 21 Sudeste 0 -- -- 67
2019-03-25 06:00:00 12.3 12 Sudeste 19 Sudeste 0 -- -- 65
2019-03-25 05:00:00 13.2 9 Sudeste 18 Este 0 -- -- 62
2019-03-25 04:00:00 13.4 10 Sudeste 19 Sudeste 0 -- -- 63
2019-03-25 03:00:00 13.4 10 Este 22 Sudeste 0 -- -- 64
2019-03-25 02:00:00 14 11 Sudeste 26 Sudeste 0 -- -- 63
2019-03-25 01:00:00 14.3 10 Este 22 Sudeste 0 -- -- 61
2019-03-25 00:00:00 14.8 12 Este 24 Este 0 -- -- 58